Time;durP1;ratioP1;P1;durP2;ratioP2;P2;SDS_P1;SDS_P2;PMS_P1;PMS_P2;Temp;Humidity;BMP_temperature;BMP_pressure;BME280_temperature;BME280_humidity;BME280_pressure;Samples;Min_cycle;Max_cycle;Signal;HPM_P1;HPM_P2
2023/05/24 00:01:24;;;;;;;;;;;;;;;12.54;91.62;96722.34;5051806;28;19966;-77
2023/05/24 00:03:57;;;;;;;;;;;;;;;12.53;91.61;96725.19;4984521;28;19956;-69
2023/05/24 00:06:25;;;;;;;;;;;;;;;12.53;90.74;96723.38;4984725;28;19954;-82
2023/05/24 00:08:51;;;;;;;;;;;;;;;12.52;91.18;96716.50;5051680;28;19960;-81
2023/05/24 00:11:17;;;;;;;;;;;;;;;12.51;91.20;96722.00;4984529;28;19959;-81
2023/05/24 00:13:43;;;;;;;;;;;;;;;12.50;91.21;96717.78;5051349;28;19963;-81
2023/05/24 00:16:09;;;;;;;;;;;;;;;12.49;91.57;96721.41;5051864;28;19941;-81
2023/05/24 00:18:39;;;;;;;;;;;;;;;12.43;90.71;96712.59;4983902;28;19964;-81
2023/05/24 00:21:07;;;;;;;;;;;;;;;12.36;91.49;96712.66;5051379;28;20146;-75
2023/05/24 00:23:33;;;;;;;;;;;;;;;12.33;90.45;96709.69;4984704;28;20221;-78
2023/05/24 00:26:00;;;;;;;;;;;;;;;12.28;92.24;96722.69;5050829;28;19965;-77
2023/05/24 00:28:26;;;;;;;;;;;;;;;12.25;90.39;96702.91;4984531;28;19956;-78
2023/05/24 00:30:52;;;;;;;;;;;;;;;12.21;91.47;96714.09;5051360;28;19958;-77
2023/05/24 00:33:18;;;;;;;;;;;;;;;12.17;90.97;96704.00;5051172;28;19962;-77
2023/05/24 00:35:44;;;;;;;;;;;;;;;12.13;90.97;96708.09;4983916;28;19965;-77
2023/05/24 00:38:10;;;;;;;;;;;;;;;12.07;90.50;96702.94;4982943;28;19959;-70
2023/05/24 00:40:36;;;;;;;;;;;;;;;12.03;91.29;96701.75;5050720;28;19964;-75
2023/05/24 00:43:01;;;;;;;;;;;;;;;12.03;91.57;96707.81;4984213;28;20196;-77
2023/05/24 00:45:28;;;;;;;;;;;;;;;12.01;91.53;96699.38;4984121;28;19963;-77
2023/05/24 00:47:53;;;;;;;;;;;;;;;12.01;90.95;96703.81;5050472;28;19968;-78
2023/05/24 00:50:19;;;;;;;;;;;;;;;11.97;91.64;96708.72;5033973;28;19966;-77
2023/05/24 00:52:46;;;;;;;;;;;;;;;12.00;91.33;96704.84;5050424;28;19960;-78
2023/05/24 00:55:12;;;;;;;;;;;;;;;12.01;91.75;96711.69;5050953;28;20282;-78
2023/05/24 00:57:38;;;;;;;;;;;;;;;12.02;90.92;96703.59;4983871;28;19957;-70
2023/05/24 01:00:04;;;;;;;;;;;;;;;12.03;90.43;96701.75;4983548;28;19964;-77
2023/05/24 01:02:31;;;;;;;;;;;;;;;11.99;90.42;96698.78;4983565;28;19955;-77
2023/05/24 01:04:58;;;;;;;;;;;;;;;11.96;90.59;96691.34;4983463;28;19961;-77
2023/05/24 01:07:36;;;;;;;;;;;;;;;11.95;90.37;96700.25;4983760;28;20109;-77
2023/05/24 01:10:05;;;;;;;;;;;;;;;11.93;90.51;96705.72;4983746;28;19957;-77
2023/05/24 01:12:40;;;;;;;;;;;;;;;11.93;90.35;96704.94;4983682;28;19959;-77
2023/05/24 01:15:12;;;;;;;;;;;;;;;11.91;90.08;96701.72;4983628;28;20280;-78
2023/05/24 01:18:00;;;;;;;;;;;;;;;11.89;90.00;96695.88;5050356;28;19961;-71
2023/05/24 01:20:29;;;;;;;;;;;;;;;11.90;90.21;96700.88;5050344;28;19970;-70
2023/05/24 01:23:06;;;;;;;;;;;;;;;11.89;90.04;96709.00;4983196;28;19951;-70
2023/05/24 01:26:11;;;;;;;;;;;;;;;11.89;90.22;96707.19;5049665;28;19967;-69
2023/05/24 01:28:38;;;;;;;;;;;;;;;11.91;90.04;96706.97;5023154;28;19983;-70
2023/05/24 01:31:04;;;;;;;;;;;;;;;11.92;89.59;96705.94;5006561;28;20036;-71
2023/05/24 01:33:31;;;;;;;;;;;;;;;11.93;90.02;96699.66;5004314;28;19967;-72
2023/05/24 01:35:57;;;;;;;;;;;;;;;11.91;89.85;96702.50;4983228;28;20154;-82
2023/05/24 01:38:22;;;;;;;;;;;;;;;11.91;89.63;96705.13;5050062;28;19964;-78
2023/05/24 01:40:51;;;;;;;;;;;;;;;11.87;89.07;96701.31;4983435;28;20268;-77
2023/05/24 01:43:22;;;;;;;;;;;;;;;11.85;89.34;96702.56;4982997;28;19963;-77
2023/05/24 01:46:00;;;;;;;;;;;;;;;11.83;88.95;96699.34;4982915;28;19956;-76
2023/05/24 01:48:52;;;;;;;;;;;;;;;11.82;88.92;96705.59;4983208;28;19963;-77
2023/05/24 01:51:21;;;;;;;;;;;;;;;11.83;88.95;96701.97;5049879;28;19952;-77
2023/05/24 01:53:47;;;;;;;;;;;;;;;11.83;87.95;96700.16;5049865;28;19970;-77
2023/05/24 01:56:14;;;;;;;;;;;;;;;11.85;88.28;96698.09;4982814;28;19953;-69
2023/05/24 01:58:42;;;;;;;;;;;;;;;11.84;87.62;96687.78;4982982;28;19961;-70
2023/05/24 02:01:08;;;;;;;;;;;;;;;11.79;87.69;96691.09;5032634;28;19957;-70
2023/05/24 02:03:36;;;;;;;;;;;;;;;11.76;87.81;96696.78;4982974;28;20142;-69
2023/05/24 02:06:02;;;;;;;;;;;;;;;11.72;87.56;96678.03;5049192;28;19961;-70
2023/05/24 02:08:28;;;;;;;;;;;;;;;11.68;86.90;96668.19;5049570;28;20142;-70
2023/05/24 02:10:54;;;;;;;;;;;;;;;11.58;88.02;96679.97;5049451;28;19952;-75
2023/05/24 02:13:20;;;;;;;;;;;;;;;11.54;87.28;96676.19;5049567;28;20168;-75
2023/05/24 02:15:46;;;;;;;;;;;;;;;11.51;87.72;96681.09;5049118;28;20150;-75
2023/05/24 02:18:12;;;;;;;;;;;;;;;11.46;87.91;96686.19;5049194;28;20261;-75
2023/05/24 02:20:39;;;;;;;;;;;;;;;11.45;87.84;96693.25;4982516;28;19949;-75
2023/05/24 02:23:05;;;;;;;;;;;;;;;11.45;87.54;96689.84;4982919;28;19964;-75
2023/05/24 02:25:31;;;;;;;;;;;;;;;11.44;87.86;96693.47;4982860;28;20144;-75
2023/05/24 02:27:58;;;;;;;;;;;;;;;11.44;87.60;96691.63;4982629;28;19967;-75
2023/05/24 02:30:24;;;;;;;;;;;;;;;11.44;87.96;96693.47;4982664;28;19959;-72
2023/05/24 02:32:49;;;;;;;;;;;;;;;11.41;88.33;96693.91;5049478;28;20146;-73
2023/05/24 02:35:15;;;;;;;;;;;;;;;11.41;87.85;96689.47;5049058;28;19970;-72
2023/05/24 02:37:41;;;;;;;;;;;;;;;11.44;88.11;96696.09;5049186;28;19967;-73
2023/05/24 02:40:07;;;;;;;;;;;;;;;11.45;88.26;96695.88;4982422;28;19957;-73
2023/05/24 02:42:33;;;;;;;;;;;;;;;11.47;87.95;96696.47;4982558;28;19959;-72
2023/05/24 02:44:59;;;;;;;;;;;;;;;11.47;86.90;96693.06;4982515;28;19966;-72
2023/05/24 02:47:28;;;;;;;;;;;;;;;11.44;87.00;96691.63;4982321;28;19953;-76
2023/05/24 02:49:54;;;;;;;;;;;;;;;11.44;87.16;96689.00;4982194;28;20123;-74
2023/05/24 02:52:21;;;;;;;;;;;;;;;11.45;87.54;96698.50;4982605;28;19981;-75
2023/05/24 02:54:50;;;;;;;;;;;;;;;11.40;87.13;96692.28;4981813;28;19976;-75
2023/05/24 02:57:17;;;;;;;;;;;;;;;11.38;87.33;96690.72;5049139;28;19957;-75
2023/05/24 02:59:43;;;;;;;;;;;;;;;11.34;86.39;96686.91;4982125;28;19956;-75
2023/05/24 03:02:08;;;;;;;;;;;;;;;11.29;86.74;96697.22;4983529;28;19952;-76
2023/05/24 03:04:34;;;;;;;;;;;;;;;11.25;87.14;96690.81;4985280;28;20032;-75
2023/05/24 03:07:00;;;;;;;;;;;;;;;11.24;87.22;96685.78;4985625;28;20270;-81
2023/05/24 03:09:26;;;;;;;;;;;;;;;11.23;87.08;96677.09;4985456;28;19958;-77
2023/05/24 03:11:53;;;;;;;;;;;;;;;11.22;86.78;96674.69;5052572;28;19954;-78
2023/05/24 03:14:21;;;;;;;;;;;;;;;11.20;86.15;96672.28;4985463;28;20227;-78
2023/05/24 03:16:47;;;;;;;;;;;;;;;11.14;86.37;96679.19;5052056;28;19957;-76
2023/05/24 03:19:14;;;;;;;;;;;;;;;11.11;87.15;96673.59;4985428;28;19964;-78
2023/05/24 03:21:39;;;;;;;;;;;;;;;11.08;86.94;96676.63;5052750;28;19966;-78
2023/05/24 03:24:05;;;;;;;;;;;;;;;11.02;87.09;96672.25;5052698;28;19951;-77
2023/05/24 03:26:31;;;;;;;;;;;;;;;10.96;86.92;96674.72;4985009;28;19961;-76
2023/05/24 03:28:57;;;;;;;;;;;;;;;10.95;86.98;96672.28;4985235;28;19961;-78
2023/05/24 03:31:25;;;;;;;;;;;;;;;10.93;87.12;96684.81;5052061;28;19963;-77
2023/05/24 03:33:51;;;;;;;;;;;;;;;10.92;87.67;96689.28;5035501;28;20265;-78
2023/05/24 03:36:17;;;;;;;;;;;;;;;10.96;87.13;96687.00;5052223;28;19963;-78
2023/05/24 03:38:43;;;;;;;;;;;;;;;10.95;87.10;96688.03;5052553;28;19967;-78
2023/05/24 03:41:09;;;;;;;;;;;;;;;10.88;86.52;96695.97;5051953;28;19964;-77
2023/05/24 03:43:35;;;;;;;;;;;;;;;10.85;87.17;96700.81;5035595;28;20014;-73
2023/05/24 03:46:00;;;;;;;;;;;;;;;10.80;87.28;96706.72;5051957;28;20006;-77
2023/05/24 03:48:26;;;;;;;;;;;;;;;10.80;86.99;96698.84;4985185;28;20124;-77
2023/05/24 03:50:52;;;;;;;;;;;;;;;10.82;87.75;96712.56;5051844;28;19966;-77
2023/05/24 03:53:19;;;;;;;;;;;;;;;10.83;86.21;96695.78;4984744;28;19963;-77
2023/05/24 03:55:44;;;;;;;;;;;;;;;10.81;86.69;96697.81;4984598;28;19975;-77
2023/05/24 03:58:11;;;;;;;;;;;;;;;10.80;87.24;96714.59;5052125;28;20018;-77
2023/05/24 04:00:37;;;;;;;;;;;;;;;10.81;87.44;96718.81;5051679;28;20245;-76
2023/05/24 04:03:05;;;;;;;;;;;;;;;10.84;87.33;96709.72;5034801;28;20032;-72
2023/05/24 04:05:32;;;;;;;;;;;;;;;10.88;87.41;96710.91;4984790;28;19964;-77
2023/05/24 04:07:58;;;;;;;;;;;;;;;10.90;86.51;96707.06;4984547;28;19956;-77
2023/05/24 04:10:24;;;;;;;;;;;;;;;10.91;86.73;96697.34;4984607;28;20022;-77
2023/05/24 04:12:50;;;;;;;;;;;;;;;10.92;86.80;96697.16;4984369;28;19960;-77
2023/05/24 04:15:16;;;;;;;;;;;;;;;10.90;86.77;96696.56;4984412;28;19976;-77
2023/05/24 04:17:42;;;;;;;;;;;;;;;10.88;86.62;96697.78;5051802;28;19976;-77
2023/05/24 04:20:12;;;;;;;;;;;;;;;10.83;86.98;96698.41;4984552;28;19956;-72
2023/05/24 04:22:38;;;;;;;;;;;;;;;10.85;87.17;96704.25;5051454;28;19967;-72
2023/05/24 04:25:04;;;;;;;;;;;;;;;10.86;87.01;96698.00;4984108;28;19958;-72
2023/05/24 04:27:30;;;;;;;;;;;;;;;10.88;87.05;96698.59;5051136;28;20235;-72
2023/05/24 04:29:56;;;;;;;;;;;;;;;10.92;87.56;96691.91;5034245;28;19996;-72
2023/05/24 04:32:22;;;;;;;;;;;;;;;10.97;86.79;96697.31;4984050;28;19962;-72
2023/05/24 04:34:48;;;;;;;;;;;;;;;11.02;87.20;96693.22;5050949;28;20012;-73
2023/05/24 04:37:18;;;;;;;;;;;;;;;11.05;87.36;96700.69;5051077;28;19970;-77
2023/05/24 04:39:44;;;;;;;;;;;;;;;11.06;86.60;96702.28;5034384;28;19973;-70
2023/05/24 04:42:11;;;;;;;;;;;;;;;11.05;86.34;96704.13;5050858;28;19966;-78
2023/05/24 04:44:36;;;;;;;;;;;;;;;10.99;86.55;96699.72;5034763;28;19950;-77
2023/05/24 04:47:02;;;;;;;;;;;;;;;10.96;86.47;96706.19;5051250;28;20290;-78
2023/05/24 04:49:28;;;;;;;;;;;;;;;10.94;87.02;96715.28;5050783;28;19963;-77
2023/05/24 04:51:55;;;;;;;;;;;;;;;10.96;87.61;96721.13;5034589;28;19968;-77
2023/05/24 04:54:21;;;;;;;;;;;;;;;10.96;86.78;96715.88;5050457;28;19954;-78
2023/05/24 04:56:47;;;;;;;;;;;;;;;10.96;87.79;96715.88;5033848;28;19966;-78
2023/05/24 04:59:13;;;;;;;;;;;;;;;10.97;87.37;96714.88;5050298;28;20065;-72
2023/05/24 05:01:39;;;;;;;;;;;;;;;10.94;86.78;96718.72;4983736;28;20015;-72
2023/05/24 05:04:06;;;;;;;;;;;;;;;10.94;87.70;96720.53;4983482;28;19959;-72
2023/05/24 05:06:33;;;;;;;;;;;;;;;10.96;87.41;96727.19;4983748;28;19965;-72
2023/05/24 05:08:59;;;;;;;;;;;;;;;10.96;86.93;96729.81;4983733;28;19966;-73
2023/05/24 05:11:26;;;;;;;;;;;;;;;10.95;87.35;96732.66;5050038;28;19973;-73
2023/05/24 05:13:53;;;;;;;;;;;;;;;10.92;87.22;96730.47;4983931;28;19942;-77
2023/05/24 05:16:19;;;;;;;;;;;;;;;10.90;87.50;96732.50;5050510;28;19970;-77
2023/05/24 05:18:45;;;;;;;;;;;;;;;10.89;87.25;96730.88;4983158;28;19959;-73
2023/05/24 05:21:11;;;;;;;;;;;;;;;10.88;87.39;96729.28;5050554;28;20025;-72
2023/05/24 05:23:38;;;;;;;;;;;;;;;10.90;88.40;96735.91;5050368;28;19984;-72
2023/05/24 05:26:06;;;;;;;;;;;;;;;10.91;87.09;96720.97;5049248;28;19957;-72
2023/05/24 05:28:32;;;;;;;;;;;;;;;10.87;87.14;96720.59;4983344;28;20264;-73
2023/05/24 05:30:58;;;;;;;;;;;;;;;10.83;87.88;96735.13;4983212;28;19960;-73
2023/05/24 05:33:24;;;;;;;;;;;;;;;10.85;87.67;96732.31;4982869;28;19962;-79
2023/05/24 05:35:49;;;;;;;;;;;;;;;10.85;87.57;96730.47;4983273;28;20280;-73
2023/05/24 05:38:15;;;;;;;;;;;;;;;10.84;88.19;96735.97;5049917;28;19966;-72
2023/05/24 05:40:41;;;;;;;;;;;;;;;10.81;87.16;96726.69;5049889;28;19990;-73
2023/05/24 05:43:08;;;;;;;;;;;;;;;10.81;87.58;96731.13;5049546;28;19949;-74
2023/05/24 05:45:34;;;;;;;;;;;;;;;10.77;88.19;96739.44;5049886;28;19957;-72
2023/05/24 05:48:00;;;;;;;;;;;;;;;10.76;88.64;96742.25;4983237;28;19977;-73
2023/05/24 05:50:25;;;;;;;;;;;;;;;10.77;88.40;96741.22;5049901;28;19965;-72
2023/05/24 05:52:51;;;;;;;;;;;;;;;10.78;88.85;96753.34;4982936;28;19951;-80
2023/05/24 05:55:17;;;;;;;;;;;;;;;10.80;88.49;96746.06;5049744;28;20017;-75
2023/05/24 05:57:43;;;;;;;;;;;;;;;10.82;88.24;96751.13;5049243;28;19962;-75
2023/05/24 06:00:09;;;;;;;;;;;;;;;10.82;87.73;96744.03;4982854;28;20266;-74
2023/05/24 06:02:35;;;;;;;;;;;;;;;10.81;86.95;96742.41;5049659;28;19962;-75
2023/05/24 06:05:01;;;;;;;;;;;;;;;10.75;88.15;96746.72;4982389;28;20002;-75
2023/05/24 06:07:27;;;;;;;;;;;;;;;10.74;87.80;96742.47;4982936;28;19961;-75
2023/05/24 06:09:53;;;;;;;;;;;;;;;10.73;87.40;96735.63;4982904;28;19966;-72
2023/05/24 06:12:19;;;;;;;;;;;;;;;10.77;87.77;96741.22;5049563;28;20243;-80
2023/05/24 06:14:47;;;;;;;;;;;;;;;10.77;87.58;96739.44;5049695;28;19969;-81
2023/05/24 06:17:12;;;;;;;;;;;;;;;10.77;88.70;96742.06;4982447;28;20155;-80
2023/05/24 06:19:38;;;;;;;;;;;;;;;10.81;87.26;96726.69;5049516;28;19955;-80
2023/05/24 06:22:04;;;;;;;;;;;;;;;10.79;87.69;96725.28;4982470;28;19963;-80
2023/05/24 06:24:33;;;;;;;;;;;;;;;10.81;88.05;96741.63;4982993;28;19960;-80
2023/05/24 06:26:58;;;;;;;;;;;;;;;10.86;88.60;96745.22;4982583;28;19955;-80
2023/05/24 06:29:24;;;;;;;;;;;;;;;10.89;87.46;96731.66;5049281;28;19962;-70
2023/05/24 06:31:50;;;;;;;;;;;;;;;10.96;87.77;96729.00;5049186;28;19973;-78
2023/05/24 06:34:19;;;;;;;;;;;;;;;11.03;88.61;96736.84;4982575;28;19967;-77
2023/05/24 06:36:47;;;;;;;;;;;;;;;11.11;87.61;96737.38;4985278;28;19963;-78
2023/05/24 06:39:14;;;;;;;;;;;;;;;11.16;87.37;96734.91;4986020;28;19966;-77
2023/05/24 06:41:39;;;;;;;;;;;;;;;11.13;86.89;96731.94;4985473;28;20233;-77
2023/05/24 06:44:05;;;;;;;;;;;;;;;11.18;87.97;96740.75;4986171;28;19962;-77
2023/05/24 06:46:31;;;;;;;;;;;;;;;11.22;87.70;96745.59;5036937;28;19969;-77
2023/05/24 06:48:57;;;;;;;;;;;;;;;11.26;86.82;96744.13;5053627;28;20032;-77
2023/05/24 06:51:23;;;;;;;;;;;;;;;11.29;87.31;96739.25;5036672;28;19957;-71
2023/05/24 06:53:49;;;;;;;;;;;;;;;11.33;87.01;96740.41;4985726;28;19961;-72
2023/05/24 06:56:15;;;;;;;;;;;;;;;11.37;87.32;96746.06;5052889;28;20130;-72
2023/05/24 06:58:41;;;;;;;;;;;;;;;11.37;86.33;96744.22;5052751;28;19999;-73
2023/05/24 07:01:07;;;;;;;;;;;;;;;11.36;86.07;96744.47;5052688;28;20288;-72
2023/05/24 07:03:33;;;;;;;;;;;;;;;11.35;86.45;96738.38;4985617;28;19998;-73
2023/05/24 07:05:59;;;;;;;;;;;;;;;11.40;86.37;96742.97;5036511;28;19962;-77
2023/05/24 07:08:25;;;;;;;;;;;;;;;11.44;86.14;96746.00;4985659;28;19954;-77
2023/05/24 07:10:55;;;;;;;;;;;;;;;11.48;85.98;96750.59;5052946;28;19946;-78
2023/05/24 07:13:21;;;;;;;;;;;;;;;11.51;85.96;96744.13;5052881;28;19957;-77
2023/05/24 07:15:47;;;;;;;;;;;;;;;11.48;85.40;96747.97;5052508;28;19978;-78
2023/05/24 07:18:13;;;;;;;;;;;;;;;11.48;85.13;96749.78;5052209;28;20315;-78
2023/05/24 07:20:39;;;;;;;;;;;;;;;11.44;85.54;96751.25;5036137;28;19959;-78
2023/05/24 07:23:05;;;;;;;;;;;;;;;11.46;85.19;96751.84;5036027;28;20164;-75
2023/05/24 07:25:32;;;;;;;;;;;;;;;11.45;85.30;96755.50;5035699;28;20245;-77
2023/05/24 07:27:59;;;;;;;;;;;;;;;11.45;84.71;96753.66;5052240;28;19962;-69
2023/05/24 07:30:26;;;;;;;;;;;;;;;11.43;85.63;96768.81;5052346;28;19966;-69
2023/05/24 07:32:52;;;;;;;;;;;;;;;11.42;85.52;96769.03;4985243;28;19958;-70
2023/05/24 07:35:18;;;;;;;;;;;;;;;11.36;85.31;96770.72;5052095;28;19978;-69
2023/05/24 07:37:44;;;;;;;;;;;;;;;11.33;85.37;96779.81;4985103;28;20243;-70
2023/05/24 07:40:11;;;;;;;;;;;;;;;11.32;86.05;96783.47;5051832;28;20015;-69
2023/05/24 07:42:37;;;;;;;;;;;;;;;11.34;86.90;96786.69;5052360;28;19968;-73
2023/05/24 07:45:04;;;;;;;;;;;;;;;11.35;86.10;96785.66;5052534;28;19969;-72
2023/05/24 07:47:30;;;;;;;;;;;;;;;11.35;85.33;96779.59;4983972;28;19955;-72
2023/05/24 07:49:56;;;;;;;;;;;;;;;11.32;85.73;96790.53;4984637;28;20152;-72
2023/05/24 07:52:23;;;;;;;;;;;;;;;11.33;86.67;96795.56;5051596;28;20259;-72
2023/05/24 07:54:49;;;;;;;;;;;;;;;11.37;86.58;96791.50;4984789;28;20225;-72
2023/05/24 07:57:14;;;;;;;;;;;;;;;11.40;86.21;96797.34;5051810;28;19992;-72
2023/05/24 07:59:40;;;;;;;;;;;;;;;11.36;85.15;96784.66;4984687;28;20237;-75
2023/05/24 08:02:10;;;;;;;;;;;;;;;11.29;85.97;96794.38;5051493;28;19982;-77
2023/05/24 08:04:36;;;;;;;;;;;;;;;11.20;85.76;96793.03;4984721;28;19970;-72
2023/05/24 08:07:03;;;;;;;;;;;;;;;11.18;85.49;96790.63;5051652;28;20133;-72
2023/05/24 08:09:32;;;;;;;;;;;;;;;11.17;86.54;96810.03;5051841;28;19949;-73
2023/05/24 08:11:58;;;;;;;;;;;;;;;11.19;86.24;96807.16;5035246;28;19964;-72
2023/05/24 08:14:24;;;;;;;;;;;;;;;11.21;86.09;96807.75;4984345;28;19996;-72
2023/05/24 08:16:50;;;;;;;;;;;;;;;11.24;85.65;96796.84;5050965;28;19974;-73
2023/05/24 08:19:16;;;;;;;;;;;;;;;11.28;85.51;96799.88;4984358;28;19956;-69
2023/05/24 08:21:42;;;;;;;;;;;;;;;11.41;86.70;96812.09;5051487;28;19962;-75
2023/05/24 08:24:08;;;;;;;;;;;;;;;11.50;85.46;96810.78;5034588;28;19972;-75
2023/05/24 08:26:34;;;;;;;;;;;;;;;11.52;85.31;96798.25;4984502;28;19965;-75
2023/05/24 08:29:00;;;;;;;;;;;;;;;11.58;85.81;96810.53;4984221;28;20035;-75
2023/05/24 08:31:26;;;;;;;;;;;;;;;11.64;85.68;96814.91;5050954;28;20027;-75
2023/05/24 08:33:51;;;;;;;;;;;;;;;11.72;85.65;96813.84;4984309;28;20022;-75
2023/05/24 08:36:17;;;;;;;;;;;;;;;11.78;83.89;96797.22;4984245;28;19998;-72
2023/05/24 08:38:43;;;;;;;;;;;;;;;11.85;84.10;96802.41;4983919;28;20013;-71
2023/05/24 08:41:10;;;;;;;;;;;;;;;11.89;83.33;96795.75;5034746;28;19964;-76
2023/05/24 08:43:36;;;;;;;;;;;;;;;11.95;84.04;96806.19;5034667;28;19960;-76
2023/05/24 08:46:03;;;;;;;;;;;;;;;12.06;82.45;96788.09;5034286;28;19970;-78
2023/05/24 08:48:29;;;;;;;;;;;;;;;12.15;82.63;96789.38;5034372;28;20137;-77
2023/05/24 08:50:56;;;;;;;;;;;;;;;12.28;82.82;96783.97;4984330;28;19960;-77
2023/05/24 08:53:22;;;;;;;;;;;;;;;12.44;80.96;96779.94;5034576;28;19956;-77
2023/05/24 08:55:48;;;;;;;;;;;;;;;12.59;80.56;96775.09;5007941;28;20052;-76
2023/05/24 08:58:15;;;;;;;;;;;;;;;12.71;79.94;96769.09;5007211;28;19956;-73
2023/05/24 09:00:41;;;;;;;;;;;;;;;12.78;80.92;96783.75;5023009;28;20278;-72
2023/05/24 09:03:08;;;;;;;;;;;;;;;12.82;79.28;96764.91;4991265;28;19961;-72
2023/05/24 09:05:36;;;;;;;;;;;;;;;12.83;78.65;96769.13;5007770;28;19957;-73
2023/05/24 09:08:02;;;;;;;;;;;;;;;12.86;79.13;96773.97;5007506;28;19942;-72
2023/05/24 09:10:31;;;;;;;;;;;;;;;12.89;79.83;96781.38;5007597;28;19961;-72
2023/05/24 09:12:59;;;;;;;;;;;;;;;12.91;79.32;96774.88;5023801;28;19954;-73
2023/05/24 09:15:25;;;;;;;;;;;;;;;12.92;79.84;96776.50;5006789;28;19976;-73
2023/05/24 09:17:51;;;;;;;;;;;;;;;12.94;79.31;96774.44;5006980;28;19961;-82
2023/05/24 09:20:29;;;;;;;;;;;;;;;13.02;78.09;96759.34;5102747;28;19957;-81
2023/05/24 09:22:56;;;;;;;;;;;;;;;13.10;77.04;96748.47;5102852;28;19948;-81
2023/05/24 09:25:22;;;;;;;;;;;;;;;13.16;77.26;96745.75;5101122;28;20226;-81
2023/05/24 09:27:51;;;;;;;;;;;;;;;13.27;78.13;96765.25;5101713;28;19939;-82
2023/05/24 09:30:17;;;;;;;;;;;;;;;13.28;75.47;96752.88;5102159;28;20120;-81
2023/05/24 09:33:13;;;;;;;;;;;;;;;13.24;76.04;96743.81;5101587;28;19942;-77
2023/05/24 09:35:45;;;;;;;;;;;;;;;13.25;76.14;96745.41;5100439;28;20316;-80
2023/05/24 09:38:17;;;;;;;;;;;;;;;13.30;75.97;96749.00;5100803;28;19950;-81
2023/05/24 09:40:44;;;;;;;;;;;;;;;13.27;75.97;96749.44;5100257;28;20134;-80
2023/05/24 09:43:10;;;;;;;;;;;;;;;13.25;75.65;96748.03;5101340;28;19942;-80
2023/05/24 09:45:38;;;;;;;;;;;;;;;13.19;76.36;96747.94;5101571;28;19945;-80
2023/05/24 09:48:09;;;;;;;;;;;;;;;13.07;75.40;96744.47;5100160;28;19947;-81
2023/05/24 09:50:35;;;;;;;;;;;;;;;13.00;76.00;96755.09;5101201;28;19945;-73
2023/05/24 09:53:01;;;;;;;;;;;;;;;12.96;76.71;96753.16;5100015;28;20150;-72
2023/05/24 09:55:27;;;;;;;;;;;;;;;12.90;75.95;96746.94;5100863;28;19936;-75
2023/05/24 09:58:02;;;;;;;;;;;;;;;12.81;74.91;96737.78;5100746;28;20171;-75
2023/05/24 10:00:29;;;;;;;;;;;;;;;12.76;75.41;96754.22;5100752;28;19938;-75
2023/05/24 10:03:06;;;;;;;;;;;;;;;12.80;74.83;96751.97;5100975;28;20129;-75
2023/05/24 10:05:32;;;;;;;;;;;;;;;12.82;75.70;96749.09;5100827;28;19946;-75
2023/05/24 10:07:59;;;;;;;;;;;;;;;12.85;75.29;96743.38;5100843;28;19947;-76
2023/05/24 10:10:27;;;;;;;;;;;;;;;12.87;76.98;96762.38;5099812;28;20250;-78
2023/05/24 10:12:54;;;;;;;;;;;;;;;12.90;75.70;96754.84;5082686;28;19941;-76
2023/05/24 10:15:20;;;;;;;;;;;;;;;13.00;76.63;96767.47;5100746;28;19935;-77
2023/05/24 10:17:46;;;;;;;;;;;;;;;13.05;74.23;96740.47;5100661;28;20269;-77
2023/05/24 10:20:11;;;;;;;;;;;;;;;13.10;75.72;96761.66;5100344;28;20243;-77
2023/05/24 10:22:42;;;;;;;;;;;;;;;13.12;74.91;96749.06;5100610;28;19965;-77
2023/05/24 10:25:11;;;;;;;;;;;;;;;13.13;74.80;96745.41;5101326;28;19938;-77
2023/05/24 10:27:37;;;;;;;;;;;;;;;13.17;75.54;96754.47;5100042;28;19946;-77
2023/05/24 10:30:09;;;;;;;;;;;;;;;13.11;74.37;96740.38;5096262;28;19971;-77
2023/05/24 10:32:36;;;;;;;;;;;;;;;13.10;75.34;96751.13;5087449;28;19937;-77
2023/05/24 10:35:03;;;;;;;;;;;;;;;12.99;72.65;96732.44;5087337;28;20225;-77
2023/05/24 10:37:30;;;;;;;;;;;;;;;12.93;74.60;96748.31;5087309;28;19940;-77
2023/05/24 10:39:57;;;;;;;;;;;;;;;12.92;74.31;96746.75;5086910;28;19976;-77
2023/05/24 10:42:23;;;;;;;;;;;;;;;12.96;75.23;96755.78;5086290;28;19947;-77
2023/05/24 10:44:49;;;;;;;;;;;;;;;12.94;74.88;96748.09;5087275;28;19975;-77
2023/05/24 10:47:16;;;;;;;;;;;;;;;12.93;74.28;96743.84;5085469;28;20268;-70
2023/05/24 10:49:50;;;;;;;;;;;;;;;12.93;75.19;96743.84;5086057;28;20209;-72
2023/05/24 10:52:16;;;;;;;;;;;;;;;12.95;73.80;96730.47;5086159;28;20134;-73
2023/05/24 10:55:06;;;;;;;;;;;;;;;12.93;72.84;96735.16;5086419;28;19941;-73
2023/05/24 10:57:33;;;;;;;;;;;;;;;12.79;74.38;96748.53;5086148;28;20136;-72
2023/05/24 11:00:17;;;;;;;;;;;;;;;12.70;73.96;96743.78;5085258;28;19962;-72
2023/05/24 11:02:43;;;;;;;;;;;;;;;12.67;74.35;96747.69;5086049;28;20124;-73
2023/05/24 11:05:10;;;;;;;;;;;;;;;12.61;75.17;96753.03;5086347;28;19939;-69
2023/05/24 11:07:42;;;;;;;;;;;;;;;12.56;74.78;96751.09;5085688;28;19958;-77
2023/05/24 11:10:12;;;;;;;;;;;;;;;12.49;75.42;96751.16;5086151;28;20066;-78
2023/05/24 11:12:40;;;;;;;;;;;;;;;12.49;76.45;96761.66;5085579;28;20095;-77
2023/05/24 11:15:08;;;;;;;;;;;;;;;12.52;75.83;96755.19;5085473;28;19952;-77
2023/05/24 11:17:53;;;;;;;;;;;;;;;12.53;75.39;96754.13;5085654;28;19959;-77
2023/05/24 11:20:19;;;;;;;;;;;;;;;12.56;74.34;96740.56;5084625;28;19994;-77
2023/05/24 11:22:45;;;;;;;;;;;;;;;12.54;75.66;96742.59;5068126;28;20237;-79
2023/05/24 11:25:11;;;;;;;;;;;;;;;12.55;75.63;96749.47;5068011;28;19955;-72
2023/05/24 11:27:42;;;;;;;;;;;;;;;12.57;75.76;96752.69;5084638;28;19938;-71
2023/05/24 11:30:09;;;;;;;;;;;;;;;12.64;75.92;96756.03;5086246;28;20101;-71
2023/05/24 11:32:37;;;;;;;;;;;;;;;12.63;74.57;96733.38;5085439;28;20212;-72
2023/05/24 11:35:07;;;;;;;;;;;;;;;12.61;74.94;96732.00;5084443;28;19952;-73
2023/05/24 11:37:33;;;;;;;;;;;;;;;12.55;73.36;96723.94;5085262;28;20103;-73
2023/05/24 11:40:01;;;;;;;;;;;;;;;12.57;75.29;96732.41;5085441;28;19955;-72
2023/05/24 11:42:27;;;;;;;;;;;;;;;12.59;74.02;96724.31;5084154;28;19948;-75
2023/05/24 11:44:52;;;;;;;;;;;;;;;12.60;72.28;96704.88;5085964;28;19940;-77
2023/05/24 11:47:19;;;;;;;;;;;;;;;12.64;73.97;96727.09;5085053;28;19945;-77
2023/05/24 11:49:48;;;;;;;;;;;;;;;12.71;73.25;96719.91;5067510;28;19945;-76
2023/05/24 11:52:14;;;;;;;;;;;;;;;12.79;71.33;96695.09;5085278;28;19947;-77
2023/05/24 11:54:40;;;;;;;;;;;;;;;12.88;72.17;96709.53;5084060;28;19945;-76
2023/05/24 11:57:05;;;;;;;;;;;;;;;13.13;72.23;96711.19;5084582;28;19952;-78
2023/05/24 11:59:31;;;;;;;;;;;;;;;13.39;65.51;96644.88;5084011;28;19998;-72
2023/05/24 12:02:02;;;;;;;;;;;;;;;13.70;71.12;96692.97;5067323;28;19944;-74
2023/05/24 12:04:28;;;;;;;;;;;;;;;14.02;71.03;96693.38;5085374;28;19948;-75
2023/05/24 12:06:54;;;;;;;;;;;;;;;14.10;68.58;96660.56;5085514;28;19951;-75
2023/05/24 12:09:20;;;;;;;;;;;;;;;14.10;68.95;96655.28;5085468;28;19944;-75
2023/05/24 12:11:46;;;;;;;;;;;;;;;14.05;69.40;96670.19;5084892;28;19942;-75
2023/05/24 12:14:13;;;;;;;;;;;;;;;14.06;69.22;96667.34;5085451;28;20209;-75
2023/05/24 12:16:41;;;;;;;;;;;;;;;14.19;69.18;96667.09;5085030;28;20132;-75
2023/05/24 12:19:07;;;;;;;;;;;;;;;14.45;69.55;96670.19;5084700;28;19989;-72
2023/05/24 12:21:35;;;;;;;;;;;;;;;14.81;67.77;96650.50;5084752;28;20252;-72
2023/05/24 12:24:10;;;;;;;;;;;;;;;15.19;64.03;96641.03;5085445;28;19940;-74
2023/05/24 12:26:40;;;;;;;;;;;;;;;15.42;54.92;96678.88;5085509;28;19944;-73
2023/05/24 12:29:05;;;;;;;;;;;;;;;15.38;51.13;96714.75;5085374;28;19980;-73
2023/05/24 12:31:33;;;;;;;;;;;;;;;15.41;63.85;96759.19;5084848;28;19990;-72
2023/05/24 12:33:59;;;;;;;;;;;;;;;15.67;62.96;96757.75;5084559;28;19939;-72
2023/05/24 12:36:27;;;;;;;;;;;;;;;15.94;62.04;96738.59;5084703;28;20007;-73
2023/05/24 12:38:55;;;;;;;;;;;;;;;16.02;60.58;96725.72;5084432;28;19937;-76
2023/05/24 12:41:21;;;;;;;;;;;;;;;16.21;63.14;96736.00;5066505;28;19946;-76
2023/05/24 12:43:49;;;;;;;;;;;;;;;16.34;56.70;96721.63;5067349;28;19941;-76
2023/05/24 12:46:16;;;;;;;;;;;;;;;16.38;58.38;96734.09;5066522;28;19949;-78
2023/05/24 12:48:42;;;;;;;;;;;;;;;16.41;60.30;96748.69;5067180;28;19952;-76